Map

Track Data

SID SEASON NUMBER BASIN SUBBASIN NAME ISO_TIME NATURE LAT LON WMO_WIND WMO_PRES WMO_AGENCY TRACK_TYPE DIST2LAND LANDFALL IFLAG USA_AGENCY USA_ATCF_ID USA_LAT USA_LON USA_RECORD USA_STATUS USA_WIND USA_PRES USA_SSHS USA_R34_NE USA_R34_SE USA_R34_SW USA_R34_NW USA_R50_NE USA_R50_SE USA_R50_SW USA_R50_NW USA_R64_NE USA_R64_SE USA_R64_SW USA_R64_NW USA_POCI USA_ROCI USA_RMW USA_EYE TOKYO_LAT TOKYO_LON TOKYO_GRADE TOKYO_WIND TOKYO_PRES TOKYO_R50_DIR TOKYO_R50_LONG TOKYO_R50_SHORT TOKYO_R30_DIR TOKYO_R30_LONG TOKYO_R30_SHORT TOKYO_LAND CMA_LAT CMA_LON CMA_CAT CMA_WIND CMA_PRES HKO_LAT HKO_LON HKO_CAT HKO_WIND HKO_PRES NEWDELHI_LAT NEWDELHI_LON NEWDELHI_GRADE NEWDELHI_WIND NEWDELHI_PRES NEWDELHI_CI NEWDELHI_DP NEWDELHI_POCI REUNION_LAT REUNION_LON REUNION_TYPE REUNION_WIND REUNION_PRES REUNION_TNUM REUNION_CI REUNION_RMW REUNION_R34_NE REUNION_R34_SE REUNION_R34_SW REUNION_R34_NW REUNION_R50_NE REUNION_R50_SE REUNION_R50_SW REUNION_R50_NW REUNION_R64_NE REUNION_R64_SE REUNION_R64_SW REUNION_R64_NW BOM_LAT BOM_LON BOM_TYPE BOM_WIND BOM_PRES BOM_TNUM BOM_CI BOM_RMW BOM_R34_NE BOM_R34_SE BOM_R34_SW BOM_R34_NW BOM_R50_NE BOM_R50_SE BOM_R50_SW BOM_R50_NW BOM_R64_NE BOM_R64_SE BOM_R64_SW BOM_R64_NW BOM_ROCI BOM_POCI BOM_EYE BOM_POS_METHOD BOM_PRES_METHOD NADI_LAT NADI_LON NADI_CAT NADI_WIND NADI_PRES WELLINGTON_LAT WELLINGTON_LON WELLINGTON_WIND WELLINGTON_PRES DS824_LAT DS824_LON DS824_STAGE DS824_WIND DS824_PRES TD9636_LAT TD9636_LON TD9636_STAGE TD9636_WIND TD9636_PRES TD9635_LAT TD9635_LON TD9635_WIND TD9635_PRES TD9635_ROCI NEUMANN_LAT NEUMANN_LON NEUMANN_CLASS NEUMANN_WIND NEUMANN_PRES MLC_LAT MLC_LON MLC_CLASS MLC_WIND MLC_PRES USA_GUST BOM_GUST BOM_GUST_PER REUNION_GUST REUNION_GUST_PER USA_SEAHGT USA_SEARAD_NE USA_SEARAD_SE USA_SEARAD_SW USA_SEARAD_NW STORM_SPEED STORM_DIR
1963267N11309 1963 90 NA NA EDITH 1963-09-23 12:00:00 TS 11.2000 -51.5000 25 hurdat_atl main 663 659 O_____________ hurdat_atl AL061963 11.2000 -51.5000 TD 25 -1 11 297
1963267N11309 1963 90 NA NA EDITH 1963-09-23 15:00:00 TS 11.4451 -51.9824 main 661 661 P_____________ AL061963 11.4451 -51.9824 TD 27 -1 11 297
1963267N11309 1963 90 NA NA EDITH 1963-09-23 18:00:00 TS 11.7000 -52.5000 30 hurdat_atl main 676 673 O_____________ hurdat_atl AL061963 11.7000 -52.5000 TD 30 -1 12 296
1963267N11309 1963 90 NA NA EDITH 1963-09-23 21:00:00 TS 11.9649 -53.0775 main 693 690 P_____________ AL061963 11.9649 -53.0775 TD 32 -1 13 293
1963267N11309 1963 90 NA NA EDITH 1963-09-24 00:00:00 TS 12.2000 -53.7000 35 1005 hurdat_atl main 707 704 O_____________ hurdat_atl AL061963 12.2000 -53.7000 TS 35 1005 0 13 288
1963267N11309 1963 90 NA NA EDITH 1963-09-24 03:00:00 TS 12.3648 -54.3277 main 712 667 P_____________ AL061963 12.3648 -54.3277 TS 37 1004 0 13 283
1963267N11309 1963 90 NA NA EDITH 1963-09-24 06:00:00 TS 12.5000 -55.0000 40 hurdat_atl main 667 615 I_____________ hurdat_atl AL061963 12.5000 -55.0000 TS 40 1004 0 14 281
1963267N11309 1963 90 NA NA EDITH 1963-09-24 09:00:00 TS 12.6423 -55.7277 main 615 543 P_____________ AL061963 12.6423 -55.7277 TS 45 1004 0 15 282
1963267N11309 1963 90 NA NA EDITH 1963-09-24 12:00:00 TS 12.8000 -56.5000 50 1004 hurdat_atl main 543 478 O_____________ hurdat_atl AL061963 12.8000 -56.5000 TS 50 1004 0 16 283
1963267N11309 1963 90 NA NA EDITH 1963-09-24 15:00:00 TS 12.9925 -57.3075 main 478 421 P_____________ AL061963 12.9925 -57.3075 TS 57 0 16 284
1963267N11309 1963 90 NA NA EDITH 1963-09-24 18:00:00 TS 13.2000 -58.1000 65 hurdat_atl main 421 385 O_____________ hurdat_atl AL061963 13.2000 -58.1000 HU 65 1 15 286
1963267N11309 1963 90 NA NA EDITH 1963-09-24 21:00:00 TS 13.4073 -58.8300 main 385 363 P_____________ AL061963 13.4073 -58.8300 HU 75 1 14 286
1963267N11309 1963 90 NA CS EDITH 1963-09-25 00:00:00 TS 13.6000 -59.5000 85 hurdat_atl main 363 349 O_____________ hurdat_atl AL061963 13.6000 -59.5000 HU 85 2 13 284
1963267N11309 1963 90 NA CS EDITH 1963-09-25 03:00:00 TS 13.7153 -60.1122 main 349 347 P_____________ AL061963 13.7153 -60.1122 HU 85 2 12 284
1963267N11309 1963 90 NA CS EDITH 1963-09-25 06:00:00 TS 13.9000 -60.7000 85 hurdat_atl main 359 359 O_____________ hurdat_atl AL061963 13.9000 -60.7000 HU 85 2 12 290
1963267N11309 1963 90 NA CS EDITH 1963-09-25 07:00:00 TS 14.0000 -60.9000 85 hurdat_atl main 369 369 O_____________ hurdat_atl AL061963 14.0000 -60.9000 L HU 85 2 12 294
1963267N11309 1963 90 NA CS EDITH 1963-09-25 09:00:00 TS 14.1468 -61.2736 main 380 380 P_____________ AL061963 14.1468 -61.2736 HU 82 1 11 289
1963267N11309 1963 90 NA CS EDITH 1963-09-25 12:00:00 TS 14.3000 -61.8000 80 993 hurdat_atl main 403 403 O_____________ hurdat_atl AL061963 14.3000 -61.8000 HU 80 993 1 11 289
1963267N11309 1963 90 NA CS EDITH 1963-09-25 15:00:00 TS 14.5039 -62.3411 main 425 425 P_____________ AL061963 14.5039 -62.3411 HU 80 991 1 11 291
1963267N11309 1963 90 NA CS EDITH 1963-09-25 18:00:00 TS 14.7000 -62.9000 80 990 hurdat_atl main 447 434 O_____________ hurdat_atl AL061963 14.7000 -62.9000 HU 80 990 1 12 288
1963267N11309 1963 90 NA CS EDITH 1963-09-25 21:00:00 TS 14.8573 -63.4851 main 424 381 P_____________ AL061963 14.8573 -63.4851 HU 75 992 1 12 285
1963267N11309 1963 90 NA CS EDITH 1963-09-26 00:00:00 TS 15.0000 -64.1000 70 hurdat_atl main 381 345 I_____________ hurdat_atl AL061963 15.0000 -64.1000 HU 70 994 1 13 283
1963267N11309 1963 90 NA CS EDITH 1963-09-26 03:00:00 TS 15.1349 -64.7502 main 341 303 P_____________ AL061963 15.1349 -64.7502 HU 65 996 1 13 283
1963267N11309 1963 90 NA CS EDITH 1963-09-26 06:00:00 TS 15.3000 -65.4000 60 998 hurdat_atl main 303 269 O_____________ hurdat_atl AL061963 15.3000 -65.4000 TS 60 998 0 13 286
1963267N11309 1963 90 NA CS EDITH 1963-09-26 09:00:00 TS 15.4975 -66.0451 main 269 237 P_____________ AL061963 15.4975 -66.0451 TS 57 999 0 13 293
1963267N11309 1963 90 NA CS EDITH 1963-09-26 12:00:00 TS 15.8000 -66.6000 55 1000 hurdat_atl main 237 190 O_____________ hurdat_atl AL061963 15.8000 -66.6000 TS 55 1000 0 12 310
1963267N11309 1963 90 NA CS EDITH 1963-09-26 15:00:00 TS 16.2698 -66.9951 main 179 123 P_____________ AL061963 16.2698 -66.9951 TS 55 1000 0 12 326
1963267N11309 1963 90 NA CS EDITH 1963-09-26 18:00:00 TS 16.8000 -67.3000 55 1000 hurdat_atl main 123 79 O_____________ hurdat_atl AL061963 16.8000 -67.3000 TS 55 1000 0 12 331
1963267N11309 1963 90 NA CS EDITH 1963-09-26 21:00:00 TS 17.2948 -67.5926 main 79 69 P_____________ AL061963 17.2948 -67.5926 TS 60 996 0 11 328
1963267N11309 1963 90 NA CS EDITH 1963-09-27 00:00:00 TS 17.7000 -67.9000 65 992 hurdat_atl main 77 38 O_____________ hurdat_atl AL061963 17.7000 -67.9000 HU 65 992 1 10 313
1963267N11309 1963 90 NA CS EDITH 1963-09-27 03:00:00 TS 17.9722 -68.3587 main 30 11 P_____________ AL061963 17.9722 -68.3587 HU 62 994 0 9 298
1963267N11309 1963 90 NA CS EDITH 1963-09-27 06:00:00 TS 18.1000 -68.7000 60 996 hurdat_atl main 11 11 O_____________ hurdat_atl AL061963 18.1000 -68.7000 TS 60 996 0 2 279
1963267N11309 1963 90 NA CS EDITH 1963-09-27 09:00:00 TS 18.0064 -68.5742 main 22 11 P_____________ AL061963 18.0064 -68.5742 TS 60 996 0 0 0
1963267N11309 1963 90 NA CS EDITH 1963-09-27 10:00:00 TS 18.1000 -68.7000 60 996 hurdat_atl main 11 0 O_____________ hurdat_atl AL061963 18.1000 -68.7000 L TS 60 996 0 20 307
1963267N11309 1963 90 NA NA EDITH 1963-09-27 12:00:00 TS 18.6000 -69.4000 55 hurdat_atl main 0 0 I_____________ hurdat_atl AL061963 18.6000 -69.4000 TS 55 996 0 18 310
1963267N11309 1963 90 NA NA EDITH 1963-09-27 15:00:00 TS 19.0936 -69.9334 main 0 0 P_____________ AL061963 19.0936 -69.9334 TS 52 997 0 10 320
1963267N11309 1963 90 NA NA EDITH 1963-09-27 18:00:00 TS 19.4000 -70.1000 50 999 hurdat_atl main 0 0 O_____________ hurdat_atl AL061963 19.4000 -70.1000 TS 50 999 0 7 330
1963267N11309 1963 90 NA NA EDITH 1963-09-27 21:00:00 TS 19.7224 -70.3227 main 10 10 P_____________ AL061963 19.7224 -70.3227 TS 47 0 7 328
1963267N11309 1963 90 NA NA EDITH 1963-09-28 00:00:00 TS 20.0000 -70.5000 45 hurdat_atl main 24 24 O_____________ hurdat_atl AL061963 20.0000 -70.5000 TS 45 0 6 327
1963267N11309 1963 90 NA NA EDITH 1963-09-28 03:00:00 TS 20.2499 -70.6852 main 44 44 P_____________ AL061963 20.2499 -70.6852 TS 42 0 6 323
1963267N11309 1963 90 NA NA EDITH 1963-09-28 06:00:00 TS 20.5000 -70.9000 40 hurdat_atl main 78 78 O_____________ hurdat_atl AL061963 20.5000 -70.9000 TS 40 0 7 319
1963267N11309 1963 90 NA NA EDITH 1963-09-28 09:00:00 TS 20.7850 -71.1776 main 111 111 P_____________ AL061963 20.7850 -71.1776 TS 40 0 8 317
1963267N11309 1963 90 NA NA EDITH 1963-09-28 12:00:00 TS 21.1000 -71.5000 40 hurdat_atl main 145 124 O_____________ hurdat_atl AL061963 21.1000 -71.5000 TS 40 0 9 316
1963267N11309 1963 90 NA NA EDITH 1963-09-28 15:00:00 TS 21.4350 -71.8501 main 116 106 P_____________ AL061963 21.4350 -71.8501 TS 37 0 10 317
1963267N11309 1963 90 NA NA EDITH 1963-09-28 18:00:00 TS 21.8000 -72.2000 35 hurdat_atl main 106 99 O_____________ hurdat_atl AL061963 21.8000 -72.2000 L TS 35 0 10 318
1963267N11309 1963 90 NA NA EDITH 1963-09-28 21:00:00 TS 22.1926 -72.5746 main 119 119 P_____________ AL061963 22.1926 -72.5746 TS 32 -1 10 325
1963267N11309 1963 90 NA NA EDITH 1963-09-29 00:00:00 TS 22.6000 -72.8000 30 hurdat_atl main 157 157 O_____________ hurdat_atl AL061963 22.6000 -72.8000 TD 30 -1 8 347
1963267N11309 1963 90 NA NA EDITH 1963-09-29 03:00:00 TS 22.9997 -72.7700 main 202 202 P_____________ AL061963 22.9997 -72.7700 TD 30 -1 9 19
1963267N11309 1963 90 NA NA EDITH 1963-09-29 06:00:00 TS 23.4000 -72.5000 30 hurdat_atl main 251 251 O_____________ hurdat_atl AL061963 23.4000 -72.5000 TD 30 -1 10 39
1963267N11309 1963 90 NA NA EDITH 1963-09-29 09:00:00 TS 23.8002 -72.0527 main 304 304 P_____________ AL061963 23.8002 -72.0527 TD 30 -1 12 49
1963267N11309 1963 90 NA NA EDITH 1963-09-29 12:00:00 MX 24.2000 -71.5000 30 hurdat_atl main 368 368 O_____________ hurdat_atl AL061963 24.2000 -71.5000 EX 30 -4 13 51
1963267N11309 1963 90 NA NA EDITH 1963-09-29 15:00:00 MX 24.6001 -70.9829 main 431 431 P_____________ AL061963 24.6001 -70.9829 EX 30 -4 12 49
1963267N11309 1963 90 NA NA EDITH 1963-09-29 18:00:00 MX 25.0000 -70.5000 30 hurdat_atl main 495 O_____________ hurdat_atl AL061963 25.0000 -70.5000 EX 30 -4 12 48

About IBTrACS Database

This database is a web-friendly format of International Best Track Archive for Climate Stewardship (IBTrACS), a global best track data archive curated by NOAA dating back to 1842.

Updated: 2021-10-19